首页
METAR-TAF:

METAR-TAF

机场 :

Crescent City, 加利福尼亚州, 美国

纬度: 41-46-49N, 经度: 124-14-12W, 海拔: 17米

当前天气观测

该预报发布于1小时和0分钟前的22:56 UTC
风速10节,风向
温度 14°C
湿度 88%
气压 1018 hPa
能見度: 8.0公里
阴天层高于300英尺
轻雾

METAR: KCEC 152256Z AUTO 18010KT 5SM BR OVC003 14/12 A3006 RMK AO2 SLP179 T01390117

时间: 16:56 (23:56 UTC)

预报

该预报发布于3小时和7分钟前的20:49 UTC
预报有效从15日的 21点(UTC)到 16日的 18点(UTC)
风速9节,风向
能見度: 9.7公里
散云层高于300英尺
轻雾
从 16日的 0200点(UTC)
风速4节,风向
能見度: 0.4公里
阴天层高于300英尺
从 16日的 1600点(UTC)
风速7节,风向
能見度: 2.4公里
阴天层高于300英尺
轻雾,

TAF: KCEC 152049Z 1521/1618 18009KT 6SM BR SCT003 FM160200 17004KT 1/4SM FG OVC003 FM161600 18007KT 1 1/2SM BR OVC003

超过4000个机场的气象观测和天气预报(METAR&TAF报告)。

可查询的气象台以黄色和红色小点在地图上表示。

将鼠标移到小点上方,可查看气象台名称。

然后点击查看天气观测和预报。

如需切换地图:点击带黑十字的绿色按钮放大地图;点击带横线的绿色按钮缩小地图;或者点击绿色箭头查看邻近地区的地图。


METAR-TAF: